sensor_id;sensor_type;location;lat;lon;timestamp;temperature;humidity
51476;DHT22;37554;50.362;7.568;2023-09-30T00:01:44;26.30;49.50
51476;DHT22;37554;50.362;7.568;2023-09-30T00:04:10;26.20;49.40
51476;DHT22;37554;50.362;7.568;2023-09-30T00:06:35;26.20;50.10
51476;DHT22;37554;50.362;7.568;2023-09-30T00:09:01;26.20;49.50
51476;DHT22;37554;50.362;7.568;2023-09-30T00:11:28;26.20;49.50
51476;DHT22;37554;50.362;7.568;2023-09-30T00:13:54;26.10;50.10
51476;DHT22;37554;50.362;7.568;2023-09-30T00:16:19;26.10;49.50
51476;DHT22;37554;50.362;7.568;2023-09-30T00:18:45;26.10;49.40
51476;DHT22;37554;50.362;7.568;2023-09-30T00:21:11;26.10;49.50
51476;DHT22;37554;50.362;7.568;2023-09-30T00:23:37;26.00;49.40
51476;DHT22;37554;50.362;7.568;2023-09-30T00:26:03;26.00;49.40
51476;DHT22;37554;50.362;7.568;2023-09-30T00:28:28;26.00;49.50
51476;DHT22;37554;50.362;7.568;2023-09-30T00:30:54;26.00;49.50
51476;DHT22;37554;50.362;7.568;2023-09-30T00:33:19;26.00;49.50
51476;DHT22;37554;50.362;7.568;2023-09-30T00:35:45;26.00;49.50
51476;DHT22;37554;50.362;7.568;2023-09-30T00:38:11;25.90;49.40
51476;DHT22;37554;50.362;7.568;2023-09-30T00:40:37;25.90;49.40
51476;DHT22;37554;50.362;7.568;2023-09-30T00:43:03;25.90;49.40
51476;DHT22;37554;50.362;7.568;2023-09-30T00:45:29;25.90;49.40
51476;DHT22;37554;50.362;7.568;2023-09-30T00:47:55;25.90;49.40
51476;DHT22;37554;50.362;7.568;2023-09-30T00:50:21;25.80;49.40
51476;DHT22;37554;50.362;7.568;2023-09-30T00:52:48;25.80;49.40
51476;DHT22;37554;50.362;7.568;2023-09-30T00:55:15;25.80;49.50
51476;DHT22;37554;50.362;7.568;2023-09-30T00:57:41;25.80;49.50
51476;DHT22;37554;50.362;7.568;2023-09-30T01:00:08;25.80;49.50
51476;DHT22;37554;50.362;7.568;2023-09-30T01:02:39;25.70;49.40
51476;DHT22;37554;50.362;7.568;2023-09-30T01:05:07;25.70;49.50
51476;DHT22;37554;50.362;7.568;2023-09-30T01:07:34;25.70;49.50
51476;DHT22;37554;50.362;7.568;2023-09-30T01:09:59;25.70;49.40
51476;DHT22;37554;50.362;7.568;2023-09-30T01:12:25;25.60;49.40
51476;DHT22;37554;50.362;7.568;2023-09-30T01:14:56;25.60;49.40
51476;DHT22;37554;50.362;7.568;2023-09-30T01:17:22;25.60;49.40
51476;DHT22;37554;50.362;7.568;2023-09-30T01:19:47;25.60;49.50
51476;DHT22;37554;50.362;7.568;2023-09-30T01:22:15;25.50;49.50
51476;DHT22;37554;50.362;7.568;2023-09-30T01:24:42;25.50;49.50
51476;DHT22;37554;50.362;7.568;2023-09-30T01:27:11;25.50;49.50
51476;DHT22;37554;50.362;7.568;2023-09-30T01:29:37;25.50;49.50
51476;DHT22;37554;50.362;7.568;2023-09-30T01:32:04;25.50;49.50
51476;DHT22;37554;50.362;7.568;2023-09-30T01:34:34;25.40;49.50
51476;DHT22;37554;50.362;7.568;2023-09-30T01:36:59;25.40;49.50
51476;DHT22;37554;50.362;7.568;2023-09-30T01:39:25;25.40;49.50
51476;DHT22;37554;50.362;7.568;2023-09-30T01:41:51;25.40;49.50
51476;DHT22;37554;50.362;7.568;2023-09-30T01:44:16;25.40;49.50
51476;DHT22;37554;50.362;7.568;2023-09-30T01:46:42;25.30;49.50
51476;DHT22;37554;50.362;7.568;2023-09-30T01:49:07;25.30;49.50
51476;DHT22;37554;50.362;7.568;2023-09-30T01:51:33;25.30;49.50
51476;DHT22;37554;50.362;7.568;2023-09-30T01:53:59;25.30;49.50
51476;DHT22;37554;50.362;7.568;2023-09-30T01:56:27;25.30;49.50
51476;DHT22;37554;50.362;7.568;2023-09-30T01:58:53;25.20;49.50
51476;DHT22;37554;50.362;7.568;2023-09-30T02:01:18;25.20;49.60
51476;DHT22;37554;50.362;7.568;2023-09-30T02:03:44;25.20;49.50
51476;DHT22;37554;50.362;7.568;2023-09-30T02:06:09;25.20;49.50
51476;DHT22;37554;50.362;7.568;2023-09-30T02:08:35;25.10;49.60
51476;DHT22;37554;50.362;7.568;2023-09-30T02:11:02;25.10;49.60
51476;DHT22;37554;50.362;7.568;2023-09-30T02:13:28;25.10;49.60
51476;DHT22;37554;50.362;7.568;2023-09-30T02:15:53;25.10;49.60
51476;DHT22;37554;50.362;7.568;2023-09-30T02:18:21;25.10;49.60
51476;DHT22;37554;50.362;7.568;2023-09-30T02:20:47;25.10;49.70
51476;DHT22;37554;50.362;7.568;2023-09-30T02:23:13;25.00;49.60
51476;DHT22;37554;50.362;7.568;2023-09-30T02:25:41;25.00;49.70
51476;DHT22;37554;50.362;7.568;2023-09-30T02:28:07;25.00;49.70
51476;DHT22;37554;50.362;7.568;2023-09-30T02:30:33;25.00;49.70
51476;DHT22;37554;50.362;7.568;2023-09-30T02:32:59;25.00;49.70
51476;DHT22;37554;50.362;7.568;2023-09-30T02:35:25;24.90;49.70
51476;DHT22;37554;50.362;7.568;2023-09-30T02:37:51;24.90;49.60
51476;DHT22;37554;50.362;7.568;2023-09-30T02:40:17;24.90;49.70
51476;DHT22;37554;50.362;7.568;2023-09-30T02:42:43;24.90;49.80
51476;DHT22;37554;50.362;7.568;2023-09-30T02:45:09;24.90;49.80
51476;DHT22;37554;50.362;7.568;2023-09-30T02:47:36;24.90;49.80
51476;DHT22;37554;50.362;7.568;2023-09-30T02:50:04;24.80;49.80
51476;DHT22;37554;50.362;7.568;2023-09-30T02:52:30;24.80;49.80
51476;DHT22;37554;50.362;7.568;2023-09-30T02:54:57;24.80;49.80
51476;DHT22;37554;50.362;7.568;2023-09-30T02:57:24;24.80;49.90
51476;DHT22;37554;50.362;7.568;2023-09-30T02:59:49;24.70;49.90
51476;DHT22;37554;50.362;7.568;2023-09-30T03:02:17;24.80;49.90
51476;DHT22;37554;50.362;7.568;2023-09-30T03:04:43;24.70;49.90
51476;DHT22;37554;50.362;7.568;2023-09-30T03:07:10;24.70;49.90
51476;DHT22;37554;50.362;7.568;2023-09-30T03:09:35;24.70;49.90
51476;DHT22;37554;50.362;7.568;2023-09-30T03:12:02;24.70;49.90
51476;DHT22;37554;50.362;7.568;2023-09-30T03:14:28;24.60;49.90
51476;DHT22;37554;50.362;7.568;2023-09-30T03:16:56;24.60;50.00
51476;DHT22;37554;50.362;7.568;2023-09-30T03:19:22;24.60;50.00
51476;DHT22;37554;50.362;7.568;2023-09-30T03:21:48;24.60;50.00
51476;DHT22;37554;50.362;7.568;2023-09-30T03:24:14;24.60;50.10
51476;DHT22;37554;50.362;7.568;2023-09-30T03:26:39;24.50;50.10
51476;DHT22;37554;50.362;7.568;2023-09-30T03:29:07;24.50;50.10
51476;DHT22;37554;50.362;7.568;2023-09-30T03:31:34;24.50;50.20
51476;DHT22;37554;50.362;7.568;2023-09-30T03:34:00;24.50;50.20
51476;DHT22;37554;50.362;7.568;2023-09-30T03:36:26;24.50;50.20
51476;DHT22;37554;50.362;7.568;2023-09-30T03:38:52;24.50;50.20
51476;DHT22;37554;50.362;7.568;2023-09-30T03:41:19;24.40;50.20
51476;DHT22;37554;50.362;7.568;2023-09-30T03:43:45;24.40;50.30
51476;DHT22;37554;50.362;7.568;2023-09-30T03:46:11;24.40;50.30
51476;DHT22;37554;50.362;7.568;2023-09-30T03:48:38;24.40;50.40
51476;DHT22;37554;50.362;7.568;2023-09-30T03:51:14;24.40;50.50
51476;DHT22;37554;50.362;7.568;2023-09-30T03:53:44;24.30;50.40
51476;DHT22;37554;50.362;7.568;2023-09-30T03:56:10;24.30;50.30
51476;DHT22;37554;50.362;7.568;2023-09-30T03:58:40;24.30;50.40
51476;DHT22;37554;50.362;7.568;2023-09-30T04:01:05;24.30;50.40
51476;DHT22;37554;50.362;7.568;2023-09-30T04:03:31;24.30;50.40
51476;DHT22;37554;50.362;7.568;2023-09-30T04:06:01;24.30;50.40
51476;DHT22;37554;50.362;7.568;2023-09-30T04:08:28;24.20;50.30
51476;DHT22;37554;50.362;7.568;2023-09-30T04:10:54;24.20;50.40
51476;DHT22;37554;50.362;7.568;2023-09-30T04:13:20;24.20;50.50
51476;DHT22;37554;50.362;7.568;2023-09-30T04:15:46;24.20;50.50
51476;DHT22;37554;50.362;7.568;2023-09-30T04:18:12;24.20;50.60
51476;DHT22;37554;50.362;7.568;2023-09-30T04:20:38;24.10;50.50
51476;DHT22;37554;50.362;7.568;2023-09-30T04:23:06;24.10;50.60
51476;DHT22;37554;50.362;7.568;2023-09-30T04:25:32;24.10;50.60
51476;DHT22;37554;50.362;7.568;2023-09-30T04:27:58;24.10;50.60
51476;DHT22;37554;50.362;7.568;2023-09-30T04:30:23;24.10;50.60
51476;DHT22;37554;50.362;7.568;2023-09-30T04:32:49;24.10;50.60
51476;DHT22;37554;50.362;7.568;2023-09-30T04:35:14;24.00;50.50
51476;DHT22;37554;50.362;7.568;2023-09-30T04:37:40;24.00;50.60
51476;DHT22;37554;50.362;7.568;2023-09-30T04:40:08;24.00;50.60
51476;DHT22;37554;50.362;7.568;2023-09-30T04:42:47;24.00;50.60
51476;DHT22;37554;50.362;7.568;2023-09-30T04:45:13;23.90;50.60
51476;DHT22;37554;50.362;7.568;2023-09-30T04:47:42;23.90;50.60
51476;DHT22;37554;50.362;7.568;2023-09-30T04:50:10;23.90;50.70
51476;DHT22;37554;50.362;7.568;2023-09-30T04:52:37;23.90;50.70
51476;DHT22;37554;50.362;7.568;2023-09-30T04:55:04;23.90;50.80
51476;DHT22;37554;50.362;7.568;2023-09-30T04:57:30;23.90;50.80
51476;DHT22;37554;50.362;7.568;2023-09-30T04:59:57;23.90;50.80
51476;DHT22;37554;50.362;7.568;2023-09-30T05:02:23;23.80;50.70
51476;DHT22;37554;50.362;7.568;2023-09-30T05:04:49;23.80;50.80
51476;DHT22;37554;50.362;7.568;2023-09-30T05:07:15;23.80;50.90
51476;DHT22;37554;50.362;7.568;2023-09-30T05:09:40;23.80;50.80
51476;DHT22;37554;50.362;7.568;2023-09-30T05:12:06;23.80;50.90
51476;DHT22;37554;50.362;7.568;2023-09-30T05:14:32;23.80;50.90
51476;DHT22;37554;50.362;7.568;2023-09-30T05:16:58;23.70;50.90
51476;DHT22;37554;50.362;7.568;2023-09-30T05:19:24;23.70;50.90
51476;DHT22;37554;50.362;7.568;2023-09-30T05:21:50;23.70;51.00
51476;DHT22;37554;50.362;7.568;2023-09-30T05:24:15;23.70;51.00
51476;DHT22;37554;50.362;7.568;2023-09-30T05:26:44;23.70;51.10
51476;DHT22;37554;50.362;7.568;2023-09-30T05:29:10;23.70;51.20
51476;DHT22;37554;50.362;7.568;2023-09-30T05:31:36;23.70;51.20
51476;DHT22;37554;50.362;7.568;2023-09-30T05:34:02;23.70;51.20
51476;DHT22;37554;50.362;7.568;2023-09-30T05:36:28;23.60;51.20
51476;DHT22;37554;50.362;7.568;2023-09-30T05:38:54;23.70;51.30
51476;DHT22;37554;50.362;7.568;2023-09-30T05:41:20;23.60;51.30
51476;DHT22;37554;50.362;7.568;2023-09-30T05:43:47;23.60;51.30
51476;DHT22;37554;50.362;7.568;2023-09-30T05:46:12;23.60;51.30
51476;DHT22;37554;50.362;7.568;2023-09-30T05:48:38;23.60;51.30
51476;DHT22;37554;50.362;7.568;2023-09-30T05:51:05;23.60;51.30
51476;DHT22;37554;50.362;7.568;2023-09-30T05:53:31;23.60;51.30
51476;DHT22;37554;50.362;7.568;2023-09-30T05:55:58;23.60;51.40
51476;DHT22;37554;50.362;7.568;2023-09-30T05:58:25;23.50;51.30
51476;DHT22;37554;50.362;7.568;2023-09-30T06:00:51;23.60;51.30
51476;DHT22;37554;50.362;7.568;2023-09-30T06:03:17;23.60;51.40
51476;DHT22;37554;50.362;7.568;2023-09-30T06:05:43;23.50;51.40
51476;DHT22;37554;50.362;7.568;2023-09-30T06:08:09;23.50;51.40
51476;DHT22;37554;50.362;7.568;2023-09-30T06:10:42;23.50;51.40
51476;DHT22;37554;50.362;7.568;2023-09-30T06:13:11;23.50;51.40
51476;DHT22;37554;50.362;7.568;2023-09-30T06:15:41;23.50;51.50
51476;DHT22;37554;50.362;7.568;2023-09-30T06:18:08;23.50;51.50
51476;DHT22;37554;50.362;7.568;2023-09-30T06:20:35;23.50;51.50
51476;DHT22;37554;50.362;7.568;2023-09-30T06:23:01;23.50;51.50
51476;DHT22;37554;50.362;7.568;2023-09-30T06:25:26;23.50;51.60
51476;DHT22;37554;50.362;7.568;2023-09-30T06:27:53;23.50;51.60
51476;DHT22;37554;50.362;7.568;2023-09-30T06:30:23;23.50;51.60
51476;DHT22;37554;50.362;7.568;2023-09-30T06:32:57;23.50;51.70
51476;DHT22;37554;50.362;7.568;2023-09-30T06:35:25;23.50;51.70
51476;DHT22;37554;50.362;7.568;2023-09-30T06:37:51;23.50;51.60
51476;DHT22;37554;50.362;7.568;2023-09-30T06:40:17;23.50;51.60
51476;DHT22;37554;50.362;7.568;2023-09-30T06:42:44;23.50;51.60
51476;DHT22;37554;50.362;7.568;2023-09-30T06:45:10;23.50;51.60
51476;DHT22;37554;50.362;7.568;2023-09-30T06:47:37;23.50;51.60
51476;DHT22;37554;50.362;7.568;2023-09-30T06:50:04;23.50;51.60
51476;DHT22;37554;50.362;7.568;2023-09-30T06:52:43;23.50;51.70
51476;DHT22;37554;50.362;7.568;2023-09-30T06:55:11;23.60;51.80
51476;DHT22;37554;50.362;7.568;2023-09-30T06:57:39;23.60;51.70
51476;DHT22;37554;50.362;7.568;2023-09-30T07:00:10;23.60;51.70
51476;DHT22;37554;50.362;7.568;2023-09-30T07:02:38;23.60;51.70
51476;DHT22;37554;50.362;7.568;2023-09-30T07:05:11;23.60;51.70
51476;DHT22;37554;50.362;7.568;2023-09-30T07:07:37;23.70;51.80
51476;DHT22;37554;50.362;7.568;2023-09-30T07:10:06;23.70;51.70
51476;DHT22;37554;50.362;7.568;2023-09-30T07:12:31;23.70;51.70
51476;DHT22;37554;50.362;7.568;2023-09-30T07:15:01;23.70;51.70
51476;DHT22;37554;50.362;7.568;2023-09-30T07:17:27;23.70;51.70
51476;DHT22;37554;50.362;7.568;2023-09-30T07:19:52;23.80;51.70
51476;DHT22;37554;50.362;7.568;2023-09-30T07:22:18;23.80;51.70
51476;DHT22;37554;50.362;7.568;2023-09-30T07:24:44;23.80;51.60
51476;DHT22;37554;50.362;7.568;2023-09-30T07:27:10;23.80;51.60
51476;DHT22;37554;50.362;7.568;2023-09-30T07:29:35;23.80;51.70
51476;DHT22;37554;50.362;7.568;2023-09-30T07:32:01;23.80;51.60
51476;DHT22;37554;50.362;7.568;2023-09-30T07:34:26;23.80;51.70
51476;DHT22;37554;50.362;7.568;2023-09-30T07:36:52;23.80;51.70
51476;DHT22;37554;50.362;7.568;2023-09-30T07:39:18;23.80;51.80
51476;DHT22;37554;50.362;7.568;2023-09-30T07:41:43;23.90;51.70
51476;DHT22;37554;50.362;7.568;2023-09-30T07:44:09;23.90;51.60
51476;DHT22;37554;50.362;7.568;2023-09-30T07:46:35;24.00;51.70
51476;DHT22;37554;50.362;7.568;2023-09-30T07:49:00;24.00;51.50
51476;DHT22;37554;50.362;7.568;2023-09-30T07:51:28;24.10;51.60
51476;DHT22;37554;50.362;7.568;2023-09-30T07:53:55;24.10;51.50
51476;DHT22;37554;50.362;7.568;2023-09-30T07:56:20;24.20;51.50
51476;DHT22;37554;50.362;7.568;2023-09-30T07:58:48;24.20;51.40
51476;DHT22;37554;50.362;7.568;2023-09-30T08:01:14;24.20;51.40
51476;DHT22;37554;50.362;7.568;2023-09-30T08:03:40;24.30;51.50
51476;DHT22;37554;50.362;7.568;2023-09-30T08:06:07;24.30;51.50
51476;DHT22;37554;50.362;7.568;2023-09-30T08:08:36;24.30;51.40
51476;DHT22;37554;50.362;7.568;2023-09-30T08:11:02;24.30;51.50
51476;DHT22;37554;50.362;7.568;2023-09-30T08:13:27;24.30;51.40
51476;DHT22;37554;50.362;7.568;2023-09-30T08:15:55;24.30;51.40
51476;DHT22;37554;50.362;7.568;2023-09-30T08:18:21;24.40;51.40
51476;DHT22;37554;50.362;7.568;2023-09-30T08:20:47;24.40;51.30
51476;DHT22;37554;50.362;7.568;2023-09-30T08:23:13;24.40;51.40
51476;DHT22;37554;50.362;7.568;2023-09-30T08:25:38;24.50;51.40
51476;DHT22;37554;50.362;7.568;2023-09-30T08:28:05;24.50;51.20
51476;DHT22;37554;50.362;7.568;2023-09-30T08:30:32;24.50;51.10
51476;DHT22;37554;50.362;7.568;2023-09-30T08:32:58;24.60;51.10
51476;DHT22;37554;50.362;7.568;2023-09-30T08:35:25;24.60;50.90
51476;DHT22;37554;50.362;7.568;2023-09-30T08:37:50;24.60;50.80
51476;DHT22;37554;50.362;7.568;2023-09-30T08:40:20;24.70;50.90
51476;DHT22;37554;50.362;7.568;2023-09-30T08:42:51;24.70;50.80
51476;DHT22;37554;50.362;7.568;2023-09-30T08:45:18;24.70;50.70
51476;DHT22;37554;50.362;7.568;2023-09-30T08:47:45;24.80;50.70
51476;DHT22;37554;50.362;7.568;2023-09-30T08:50:12;24.80;50.80
51476;DHT22;37554;50.362;7.568;2023-09-30T08:52:41;24.80;50.80
51476;DHT22;37554;50.362;7.568;2023-09-30T08:55:08;24.90;50.80
51476;DHT22;37554;50.362;7.568;2023-09-30T08:57:42;24.90;50.60
51476;DHT22;37554;50.362;7.568;2023-09-30T09:00:10;24.90;50.50
51476;DHT22;37554;50.362;7.568;2023-09-30T09:02:39;25.00;50.50
51476;DHT22;37554;50.362;7.568;2023-09-30T09:05:06;25.10;50.30
51476;DHT22;37554;50.362;7.568;2023-09-30T09:07:32;25.20;50.20
51476;DHT22;37554;50.362;7.568;2023-09-30T09:10:07;25.30;50.10
51476;DHT22;37554;50.362;7.568;2023-09-30T09:12:37;25.30;50.00
51476;DHT22;37554;50.362;7.568;2023-09-30T09:15:05;25.40;49.90
51476;DHT22;37554;50.362;7.568;2023-09-30T09:17:42;25.50;49.90
51476;DHT22;37554;50.362;7.568;2023-09-30T09:20:08;25.50;49.80
51476;DHT22;37554;50.362;7.568;2023-09-30T09:22:42;25.50;49.60
51476;DHT22;37554;50.362;7.568;2023-09-30T09:25:08;25.60;49.60
51476;DHT22;37554;50.362;7.568;2023-09-30T09:27:34;25.70;49.60
51476;DHT22;37554;50.362;7.568;2023-09-30T09:30:16;25.80;49.50
51476;DHT22;37554;50.362;7.568;2023-09-30T09:32:59;26.00;49.40
51476;DHT22;37554;50.362;7.568;2023-09-30T09:35:26;26.20;49.30
51476;DHT22;37554;50.362;7.568;2023-09-30T09:37:56;26.30;49.00
51476;DHT22;37554;50.362;7.568;2023-09-30T09:40:24;26.50;49.00
51476;DHT22;37554;50.362;7.568;2023-09-30T09:42:51;26.60;48.90
51476;DHT22;37554;50.362;7.568;2023-09-30T09:45:21;26.70;48.80
51476;DHT22;37554;50.362;7.568;2023-09-30T09:47:48;26.80;48.70
51476;DHT22;37554;50.362;7.568;2023-09-30T09:50:14;27.20;48.70
51476;DHT22;37554;50.362;7.568;2023-09-30T09:52:41;27.40;48.30
51476;DHT22;37554;50.362;7.568;2023-09-30T09:55:10;27.70;48.00
51476;DHT22;37554;50.362;7.568;2023-09-30T09:57:37;28.10;47.70
51476;DHT22;37554;50.362;7.568;2023-09-30T10:00:04;28.40;47.40
51476;DHT22;37554;50.362;7.568;2023-09-30T10:02:42;28.70;47.10
51476;DHT22;37554;50.362;7.568;2023-09-30T10:05:08;29.00;46.80
51476;DHT22;37554;50.362;7.568;2023-09-30T10:07:40;29.30;46.50
51476;DHT22;37554;50.362;7.568;2023-09-30T10:10:14;29.60;46.30
51476;DHT22;37554;50.362;7.568;2023-09-30T10:12:40;29.80;46.00
51476;DHT22;37554;50.362;7.568;2023-09-30T10:18:01;30.40;45.40
51476;DHT22;37554;50.362;7.568;2023-09-30T10:20:30;30.70;45.60
51476;DHT22;37554;50.362;7.568;2023-09-30T10:23:22;30.90;45.00
51476;DHT22;37554;50.362;7.568;2023-09-30T10:25:52;31.20;44.60
51476;DHT22;37554;50.362;7.568;2023-09-30T10:28:36;31.50;44.40
51476;DHT22;37554;50.362;7.568;2023-09-30T10:31:11;31.80;44.10
51476;DHT22;37554;50.362;7.568;2023-09-30T10:36:39;32.30;43.40
51476;DHT22;37554;50.362;7.568;2023-09-30T10:39:05;32.60;43.20
51476;DHT22;37554;50.362;7.568;2023-09-30T10:47:00;33.50;42.40
51476;DHT22;37554;50.362;7.568;2023-09-30T10:49:42;33.70;42.30
51476;DHT22;37554;50.362;7.568;2023-09-30T10:52:08;34.00;42.10
51476;DHT22;37554;50.362;7.568;2023-09-30T10:54:35;34.30;41.70
51476;DHT22;37554;50.362;7.568;2023-09-30T10:57:01;34.60;41.40
51476;DHT22;37554;50.362;7.568;2023-09-30T10:59:28;34.90;41.20
51476;DHT22;37554;50.362;7.568;2023-09-30T11:01:58;35.20;40.80
51476;DHT22;37554;50.362;7.568;2023-09-30T11:04:24;35.60;40.50
51476;DHT22;37554;50.362;7.568;2023-09-30T11:06:49;35.90;40.20
51476;DHT22;37554;50.362;7.568;2023-09-30T11:09:22;36.30;39.70
51476;DHT22;37554;50.362;7.568;2023-09-30T11:11:50;36.80;39.30
51476;DHT22;37554;50.362;7.568;2023-09-30T11:14:30;37.20;38.90
51476;DHT22;37554;50.362;7.568;2023-09-30T11:19:23;38.20;37.80
51476;DHT22;37554;50.362;7.568;2023-09-30T11:21:52;38.70;37.20
51476;DHT22;37554;50.362;7.568;2023-09-30T11:24:18;39.20;36.80
51476;DHT22;37554;50.362;7.568;2023-09-30T11:26:44;39.80;36.30
51476;DHT22;37554;50.362;7.568;2023-09-30T11:29:15;40.30;35.70
51476;DHT22;37554;50.362;7.568;2023-09-30T11:31:46;40.90;35.20
51476;DHT22;37554;50.362;7.568;2023-09-30T11:34:13;41.40;35.00
51476;DHT22;37554;50.362;7.568;2023-09-30T11:36:41;41.80;34.50
51476;DHT22;37554;50.362;7.568;2023-09-30T11:39:08;42.20;34.20
51476;DHT22;37554;50.362;7.568;2023-09-30T11:41:36;42.50;34.00
51476;DHT22;37554;50.362;7.568;2023-09-30T11:44:12;42.70;33.80
51476;DHT22;37554;50.362;7.568;2023-09-30T11:47:01;42.90;33.00
51476;DHT22;37554;50.362;7.568;2023-09-30T11:52:06;43.20;34.10
51476;DHT22;37554;50.362;7.568;2023-09-30T11:54:34;43.20;33.30
51476;DHT22;37554;50.362;7.568;2023-09-30T11:57:03;43.20;33.40
51476;DHT22;37554;50.362;7.568;2023-09-30T11:59:29;43.20;33.40
51476;DHT22;37554;50.362;7.568;2023-09-30T12:01:56;43.10;33.50
51476;DHT22;37554;50.362;7.568;2023-09-30T12:04:21;42.90;33.70
51476;DHT22;37554;50.362;7.568;2023-09-30T12:06:48;42.70;33.80
51476;DHT22;37554;50.362;7.568;2023-09-30T12:09:15;42.60;34.10
51476;DHT22;37554;50.362;7.568;2023-09-30T12:11:42;42.40;34.30
51476;DHT22;37554;50.362;7.568;2023-09-30T12:14:12;41.80;34.50
51476;DHT22;37554;50.362;7.568;2023-09-30T12:16:39;41.10;34.80
51476;DHT22;37554;50.362;7.568;2023-09-30T12:19:05;40.70;35.30
51476;DHT22;37554;50.362;7.568;2023-09-30T12:21:31;40.60;35.60
51476;DHT22;37554;50.362;7.568;2023-09-30T12:23:57;40.20;35.70
51476;DHT22;37554;50.362;7.568;2023-09-30T12:26:23;40.10;35.90
51476;DHT22;37554;50.362;7.568;2023-09-30T12:28:49;40.20;35.90
51476;DHT22;37554;50.362;7.568;2023-09-30T12:31:15;40.40;35.80
51476;DHT22;37554;50.362;7.568;2023-09-30T12:33:41;40.50;35.60
51476;DHT22;37554;50.362;7.568;2023-09-30T12:36:06;40.60;35.70
51476;DHT22;37554;50.362;7.568;2023-09-30T12:38:33;40.70;35.80
51476;DHT22;37554;50.362;7.568;2023-09-30T12:40:58;40.80;35.70
51476;DHT22;37554;50.362;7.568;2023-09-30T12:43:26;40.90;35.60
51476;DHT22;37554;50.362;7.568;2023-09-30T12:45:51;41.00;35.50
51476;DHT22;37554;50.362;7.568;2023-09-30T12:48:17;41.00;35.30
51476;DHT22;37554;50.362;7.568;2023-09-30T12:50:43;41.10;35.30
51476;DHT22;37554;50.362;7.568;2023-09-30T12:53:09;41.20;35.30
51476;DHT22;37554;50.362;7.568;2023-09-30T12:55:35;41.20;35.30
51476;DHT22;37554;50.362;7.568;2023-09-30T12:58:01;41.20;35.20
51476;DHT22;37554;50.362;7.568;2023-09-30T13:00:27;41.30;35.20
51476;DHT22;37554;50.362;7.568;2023-09-30T13:02:56;41.20;35.20
51476;DHT22;37554;50.362;7.568;2023-09-30T13:05:22;41.10;35.20
51476;DHT22;37554;50.362;7.568;2023-09-30T13:07:48;41.10;35.40
51476;DHT22;37554;50.362;7.568;2023-09-30T13:10:14;41.10;35.40
51476;DHT22;37554;50.362;7.568;2023-09-30T13:12:39;41.10;35.50
51476;DHT22;37554;50.362;7.568;2023-09-30T13:15:05;41.00;35.50
51476;DHT22;37554;50.362;7.568;2023-09-30T13:17:31;41.00;35.60
51476;DHT22;37554;50.362;7.568;2023-09-30T13:19:58;40.90;35.60
51476;DHT22;37554;50.362;7.568;2023-09-30T13:22:23;40.90;35.80
51476;DHT22;37554;50.362;7.568;2023-09-30T13:24:49;40.90;35.90
51476;DHT22;37554;50.362;7.568;2023-09-30T13:27:15;40.90;35.80
51476;DHT22;37554;50.362;7.568;2023-09-30T13:29:41;40.80;35.70
51476;DHT22;37554;50.362;7.568;2023-09-30T13:32:09;40.70;35.80
51476;DHT22;37554;50.362;7.568;2023-09-30T13:34:35;40.70;35.80
51476;DHT22;37554;50.362;7.568;2023-09-30T13:37:01;40.70;35.80
51476;DHT22;37554;50.362;7.568;2023-09-30T13:39:26;40.60;35.80
51476;DHT22;37554;50.362;7.568;2023-09-30T13:41:53;40.60;36.00
51476;DHT22;37554;50.362;7.568;2023-09-30T13:44:18;40.50;36.00
51476;DHT22;37554;50.362;7.568;2023-09-30T13:46:44;40.40;36.10
51476;DHT22;37554;50.362;7.568;2023-09-30T13:49:11;40.20;36.10
51476;DHT22;37554;50.362;7.568;2023-09-30T13:51:36;40.20;36.20
51476;DHT22;37554;50.362;7.568;2023-09-30T13:54:04;40.10;36.30
51476;DHT22;37554;50.362;7.568;2023-09-30T13:56:30;40.10;36.30
51476;DHT22;37554;50.362;7.568;2023-09-30T13:58:56;40.00;36.40
51476;DHT22;37554;50.362;7.568;2023-09-30T14:01:23;39.90;36.40
51476;DHT22;37554;50.362;7.568;2023-09-30T14:03:48;39.90;36.50
51476;DHT22;37554;50.362;7.568;2023-09-30T14:06:14;39.80;36.50
51476;DHT22;37554;50.362;7.568;2023-09-30T14:08:40;39.70;36.50
51476;DHT22;37554;50.362;7.568;2023-09-30T14:11:09;39.70;36.60
51476;DHT22;37554;50.362;7.568;2023-09-30T14:13:36;39.60;36.70
51476;DHT22;37554;50.362;7.568;2023-09-30T14:16:02;39.50;36.70
51476;DHT22;37554;50.362;7.568;2023-09-30T14:18:27;39.40;36.80
51476;DHT22;37554;50.362;7.568;2023-09-30T14:20:53;39.30;36.90
51476;DHT22;37554;50.362;7.568;2023-09-30T14:23:19;39.10;37.00
51476;DHT22;37554;50.362;7.568;2023-09-30T14:25:45;39.00;37.00
51476;DHT22;37554;50.362;7.568;2023-09-30T14:28:10;38.90;37.10
51476;DHT22;37554;50.362;7.568;2023-09-30T14:30:36;38.80;37.10
51476;DHT22;37554;50.362;7.568;2023-09-30T14:33:02;38.70;37.20
51476;DHT22;37554;50.362;7.568;2023-09-30T14:35:28;38.70;37.30
51476;DHT22;37554;50.362;7.568;2023-09-30T14:37:54;38.50;37.30
51476;DHT22;37554;50.362;7.568;2023-09-30T14:40:22;38.40;37.30
51476;DHT22;37554;50.362;7.568;2023-09-30T14:42:47;38.30;37.40
51476;DHT22;37554;50.362;7.568;2023-09-30T14:45:13;38.20;37.50
51476;DHT22;37554;50.362;7.568;2023-09-30T14:47:38;38.10;37.60
51476;DHT22;37554;50.362;7.568;2023-09-30T14:50:09;38.00;37.60
51476;DHT22;37554;50.362;7.568;2023-09-30T14:52:35;37.90;37.60
51476;DHT22;37554;50.362;7.568;2023-09-30T14:55:01;37.80;37.60
51476;DHT22;37554;50.362;7.568;2023-09-30T14:57:27;37.70;38.20
51476;DHT22;37554;50.362;7.568;2023-09-30T14:59:52;37.60;37.60
51476;DHT22;37554;50.362;7.568;2023-09-30T15:02:18;37.60;37.70
51476;DHT22;37554;50.362;7.568;2023-09-30T15:04:44;37.50;37.70
51476;DHT22;37554;50.362;7.568;2023-09-30T15:07:09;37.40;37.70
51476;DHT22;37554;50.362;7.568;2023-09-30T15:09:35;37.30;37.80
51476;DHT22;37554;50.362;7.568;2023-09-30T15:12:01;37.20;37.80
51476;DHT22;37554;50.362;7.568;2023-09-30T15:14:27;37.00;37.80
51476;DHT22;37554;50.362;7.568;2023-09-30T15:16:53;36.90;37.90
51476;DHT22;37554;50.362;7.568;2023-09-30T15:19:18;36.80;38.00
51476;DHT22;37554;50.362;7.568;2023-09-30T15:21:44;36.70;38.00
51476;DHT22;37554;50.362;7.568;2023-09-30T15:24:11;36.60;38.10
51476;DHT22;37554;50.362;7.568;2023-09-30T15:26:36;36.50;38.10
51476;DHT22;37554;50.362;7.568;2023-09-30T15:29:02;36.40;38.20
51476;DHT22;37554;50.362;7.568;2023-09-30T15:31:29;36.30;38.30
51476;DHT22;37554;50.362;7.568;2023-09-30T15:33:56;36.20;38.40
51476;DHT22;37554;50.362;7.568;2023-09-30T15:36:22;36.10;38.40
51476;DHT22;37554;50.362;7.568;2023-09-30T15:38:47;36.00;38.50
51476;DHT22;37554;50.362;7.568;2023-09-30T15:41:14;35.90;38.70
51476;DHT22;37554;50.362;7.568;2023-09-30T15:43:40;35.70;38.70
51476;DHT22;37554;50.362;7.568;2023-09-30T15:46:08;35.60;38.70